sensor_id;sensor_type;location;lat;lon;timestamp;temperature;humidity
19646;DHT22;9971;52.446;13.452;2022-11-21T00:01:50;14.90;96.60
19646;DHT22;9971;52.446;13.452;2022-11-21T00:06:53;14.90;96.90
19646;DHT22;9971;52.446;13.452;2022-11-21T00:11:55;14.90;96.20
19646;DHT22;9971;52.446;13.452;2022-11-21T00:16:58;14.90;96.30
19646;DHT22;9971;52.446;13.452;2022-11-21T00:22:00;14.90;96.60
19646;DHT22;9971;52.446;13.452;2022-11-21T00:27:03;14.90;97.00
19646;DHT22;9971;52.446;13.452;2022-11-21T00:32:05;14.90;97.30
19646;DHT22;9971;52.446;13.452;2022-11-21T00:37:08;14.90;98.00
19646;DHT22;9971;52.446;13.452;2022-11-21T00:42:10;14.90;99.80
19646;DHT22;9971;52.446;13.452;2022-11-21T00:47:13;14.90;99.90
19646;DHT22;9971;52.446;13.452;2022-11-21T00:52:16;14.90;99.90
19646;DHT22;9971;52.446;13.452;2022-11-21T00:57:17;14.90;99.90
19646;DHT22;9971;52.446;13.452;2022-11-21T01:02:19;14.90;99.90
19646;DHT22;9971;52.446;13.452;2022-11-21T01:07:22;14.90;99.90
19646;DHT22;9971;52.446;13.452;2022-11-21T01:12:24;14.80;99.90
19646;DHT22;9971;52.446;13.452;2022-11-21T01:17:27;14.80;99.90
19646;DHT22;9971;52.446;13.452;2022-11-21T01:22:29;14.80;99.90
19646;DHT22;9971;52.446;13.452;2022-11-21T01:27:32;14.80;99.90
19646;DHT22;9971;52.446;13.452;2022-11-21T01:32:34;14.80;99.90
19646;DHT22;9971;52.446;13.452;2022-11-21T01:37:37;14.80;99.90
19646;DHT22;9971;52.446;13.452;2022-11-21T01:42:48;14.80;99.90
19646;DHT22;9971;52.446;13.452;2022-11-21T01:47:45;14.80;99.90
19646;DHT22;9971;52.446;13.452;2022-11-21T01:52:47;14.90;99.90
19646;DHT22;9971;52.446;13.452;2022-11-21T01:57:49;14.90;99.90
19646;DHT22;9971;52.446;13.452;2022-11-21T02:02:52;14.90;99.90
19646;DHT22;9971;52.446;13.452;2022-11-21T02:07:54;14.90;99.90
19646;DHT22;9971;52.446;13.452;2022-11-21T02:12:56;14.90;99.90
19646;DHT22;9971;52.446;13.452;2022-11-21T02:17:58;15.00;99.90
19646;DHT22;9971;52.446;13.452;2022-11-21T02:23:52;15.00;99.90
19646;DHT22;9971;52.446;13.452;2022-11-21T02:28:34;15.00;99.90
19646;DHT22;9971;52.446;13.452;2022-11-21T02:33:36;15.10;99.90
19646;DHT22;9971;52.446;13.452;2022-11-21T02:38:38;15.10;99.90
19646;DHT22;9971;52.446;13.452;2022-11-21T02:43:41;15.10;99.90
19646;DHT22;9971;52.446;13.452;2022-11-21T02:48:43;15.10;99.90
19646;DHT22;9971;52.446;13.452;2022-11-21T02:53:45;15.20;99.90
19646;DHT22;9971;52.446;13.452;2022-11-21T02:58:47;15.20;99.90
19646;DHT22;9971;52.446;13.452;2022-11-21T03:03:50;15.20;99.90
19646;DHT22;9971;52.446;13.452;2022-11-21T03:08:52;15.20;99.90
19646;DHT22;9971;52.446;13.452;2022-11-21T03:13:55;15.20;99.90
19646;DHT22;9971;52.446;13.452;2022-11-21T03:18:57;15.20;99.90
19646;DHT22;9971;52.446;13.452;2022-11-21T03:24:00;15.30;99.90
19646;DHT22;9971;52.446;13.452;2022-11-21T03:29:02;15.30;99.90
19646;DHT22;9971;52.446;13.452;2022-11-21T03:34:05;15.30;99.90
19646;DHT22;9971;52.446;13.452;2022-11-21T03:39:07;15.30;99.90
19646;DHT22;9971;52.446;13.452;2022-11-21T03:44:10;15.30;99.90
19646;DHT22;9971;52.446;13.452;2022-11-21T03:49:11;15.30;99.90
19646;DHT22;9971;52.446;13.452;2022-11-21T03:54:13;15.40;99.90
19646;DHT22;9971;52.446;13.452;2022-11-21T03:59:15;15.40;99.90
19646;DHT22;9971;52.446;13.452;2022-11-21T04:04:18;15.40;99.90
19646;DHT22;9971;52.446;13.452;2022-11-21T04:09:20;15.40;99.90
19646;DHT22;9971;52.446;13.452;2022-11-21T04:14:23;15.40;99.90
19646;DHT22;9971;52.446;13.452;2022-11-21T04:19:25;15.50;99.90
19646;DHT22;9971;52.446;13.452;2022-11-21T04:24:27;15.50;99.90
19646;DHT22;9971;52.446;13.452;2022-11-21T04:29:30;15.50;99.90
19646;DHT22;9971;52.446;13.452;2022-11-21T04:34:32;15.50;99.90
19646;DHT22;9971;52.446;13.452;2022-11-21T04:39:35;15.60;99.90
19646;DHT22;9971;52.446;13.452;2022-11-21T04:44:37;15.60;99.90
19646;DHT22;9971;52.446;13.452;2022-11-21T04:49:40;15.60;99.90
19646;DHT22;9971;52.446;13.452;2022-11-21T04:54:42;15.60;99.90
19646;DHT22;9971;52.446;13.452;2022-11-21T04:59:45;15.60;99.90
19646;DHT22;9971;52.446;13.452;2022-11-21T05:04:47;15.60;99.90
19646;DHT22;9971;52.446;13.452;2022-11-21T05:09:50;15.60;99.90
19646;DHT22;9971;52.446;13.452;2022-11-21T05:14:52;15.70;99.90
19646;DHT22;9971;52.446;13.452;2022-11-21T05:19:54;15.70;99.90
19646;DHT22;9971;52.446;13.452;2022-11-21T05:24:57;15.70;99.90
19646;DHT22;9971;52.446;13.452;2022-11-21T05:29:59;15.70;99.90
19646;DHT22;9971;52.446;13.452;2022-11-21T05:35:02;15.70;99.90
19646;DHT22;9971;52.446;13.452;2022-11-21T05:40:05;15.70;99.90
19646;DHT22;9971;52.446;13.452;2022-11-21T05:45:08;15.80;99.90
19646;DHT22;9971;52.446;13.452;2022-11-21T05:50:11;15.80;99.90
19646;DHT22;9971;52.446;13.452;2022-11-21T05:55:13;15.80;99.90
19646;DHT22;9971;52.446;13.452;2022-11-21T06:00:16;15.90;99.90
19646;DHT22;9971;52.446;13.452;2022-11-21T06:05:19;15.90;99.90
19646;DHT22;9971;52.446;13.452;2022-11-21T06:10:21;15.90;99.90
19646;DHT22;9971;52.446;13.452;2022-11-21T06:15:24;15.90;99.90
19646;DHT22;9971;52.446;13.452;2022-11-21T06:20:26;16.00;99.90
19646;DHT22;9971;52.446;13.452;2022-11-21T06:25:29;16.00;99.90
19646;DHT22;9971;52.446;13.452;2022-11-21T06:30:32;16.00;99.90
19646;DHT22;9971;52.446;13.452;2022-11-21T06:35:35;16.00;99.90
19646;DHT22;9971;52.446;13.452;2022-11-21T06:40:36;16.10;99.90
19646;DHT22;9971;52.446;13.452;2022-11-21T06:45:38;16.10;99.90
19646;DHT22;9971;52.446;13.452;2022-11-21T06:50:41;16.20;99.90
19646;DHT22;9971;52.446;13.452;2022-11-21T06:55:43;16.20;99.90
19646;DHT22;9971;52.446;13.452;2022-11-21T07:00:46;16.20;99.90
19646;DHT22;9971;52.446;13.452;2022-11-21T07:05:48;16.20;99.90
19646;DHT22;9971;52.446;13.452;2022-11-21T07:10:51;16.20;99.90
19646;DHT22;9971;52.446;13.452;2022-11-21T07:15:53;16.30;99.90
19646;DHT22;9971;52.446;13.452;2022-11-21T07:20:58;16.30;99.90
19646;DHT22;9971;52.446;13.452;2022-11-21T07:26:02;16.30;99.90
19646;DHT22;9971;52.446;13.452;2022-11-21T07:31:03;16.30;99.90
19646;DHT22;9971;52.446;13.452;2022-11-21T07:36:06;16.30;99.90
19646;DHT22;9971;52.446;13.452;2022-11-21T07:41:08;16.40;99.90
19646;DHT22;9971;52.446;13.452;2022-11-21T07:46:10;16.40;99.90
19646;DHT22;9971;52.446;13.452;2022-11-21T07:51:12;16.40;99.90
19646;DHT22;9971;52.446;13.452;2022-11-21T07:56:15;16.50;99.90
19646;DHT22;9971;52.446;13.452;2022-11-21T08:01:17;16.50;99.90
19646;DHT22;9971;52.446;13.452;2022-11-21T08:06:19;16.50;99.90
19646;DHT22;9971;52.446;13.452;2022-11-21T08:11:22;16.50;99.90
19646;DHT22;9971;52.446;13.452;2022-11-21T08:16:24;16.50;99.90
19646;DHT22;9971;52.446;13.452;2022-11-21T08:21:26;16.50;99.90
19646;DHT22;9971;52.446;13.452;2022-11-21T08:26:29;16.50;99.90
19646;DHT22;9971;52.446;13.452;2022-11-21T08:31:31;16.50;99.90
19646;DHT22;9971;52.446;13.452;2022-11-21T08:36:34;16.50;99.90
19646;DHT22;9971;52.446;13.452;2022-11-21T08:41:36;16.50;99.90
19646;DHT22;9971;52.446;13.452;2022-11-21T08:46:44;16.50;99.90
19646;DHT22;9971;52.446;13.452;2022-11-21T08:51:47;16.60;99.90
19646;DHT22;9971;52.446;13.452;2022-11-21T08:56:49;16.60;99.90
19646;DHT22;9971;52.446;13.452;2022-11-21T09:01:51;16.60;99.90
19646;DHT22;9971;52.446;13.452;2022-11-21T09:06:54;16.60;96.50
19646;DHT22;9971;52.446;13.452;2022-11-21T09:11:56;16.60;96.90
19646;DHT22;9971;52.446;13.452;2022-11-21T09:16:59;16.60;98.60
19646;DHT22;9971;52.446;13.452;2022-11-21T09:22:07;16.60;91.90
19646;DHT22;9971;52.446;13.452;2022-11-21T09:27:09;16.60;91.90
19646;DHT22;9971;52.446;13.452;2022-11-21T09:32:12;16.70;95.20
19646;DHT22;9971;52.446;13.452;2022-11-21T09:37:14;16.70;95.20
19646;DHT22;9971;52.446;13.452;2022-11-21T09:42:27;16.70;90.80
19646;DHT22;9971;52.446;13.452;2022-11-21T09:47:26;16.70;88.90
19646;DHT22;9971;52.446;13.452;2022-11-21T09:52:35;16.70;86.80
19646;DHT22;9971;52.446;13.452;2022-11-21T09:57:33;16.70;90.10
19646;DHT22;9971;52.446;13.452;2022-11-21T10:02:35;16.70;90.90
19646;DHT22;9971;52.446;13.452;2022-11-21T10:07:37;16.80;92.50
19646;DHT22;9971;52.446;13.452;2022-11-21T10:13:01;16.80;90.60
19646;DHT22;9971;52.446;13.452;2022-11-21T10:23:32;16.90;91.30
19646;DHT22;9971;52.446;13.452;2022-11-21T10:28:39;16.90;92.70
19646;DHT22;9971;52.446;13.452;2022-11-21T10:33:39;17.00;93.70
19646;DHT22;9971;52.446;13.452;2022-11-21T10:38:41;17.00;91.60
19646;DHT22;9971;52.446;13.452;2022-11-21T10:43:48;17.00;89.20
19646;DHT22;9971;52.446;13.452;2022-11-21T10:48:55;17.00;81.40
19646;DHT22;9971;52.446;13.452;2022-11-21T10:54:10;16.90;78.00
19646;DHT22;9971;52.446;13.452;2022-11-21T10:59:23;16.90;77.30
19646;DHT22;9971;52.446;13.452;2022-11-21T11:04:24;16.90;75.30
19646;DHT22;9971;52.446;13.452;2022-11-21T11:09:29;16.90;78.70
19646;DHT22;9971;52.446;13.452;2022-11-21T11:14:30;16.90;76.40
19646;DHT22;9971;52.446;13.452;2022-11-21T11:19:32;16.90;76.70
19646;DHT22;9971;52.446;13.452;2022-11-21T11:24:34;16.90;74.90
19646;DHT22;9971;52.446;13.452;2022-11-21T11:29:48;16.90;75.60
19646;DHT22;9971;52.446;13.452;2022-11-21T11:34:40;16.90;82.30
19646;DHT22;9971;52.446;13.452;2022-11-21T11:45:04;17.00;85.30
19646;DHT22;9971;52.446;13.452;2022-11-21T11:55:50;17.10;91.40
19646;DHT22;9971;52.446;13.452;2022-11-21T12:01:07;17.10;89.60
19646;DHT22;9971;52.446;13.452;2022-11-21T12:06:18;17.10;88.70
19646;DHT22;9971;52.446;13.452;2022-11-21T12:16:49;17.20;92.00
19646;DHT22;9971;52.446;13.452;2022-11-21T12:21:51;17.30;81.40
19646;DHT22;9971;52.446;13.452;2022-11-21T12:27:01;17.20;81.50
19646;DHT22;9971;52.446;13.452;2022-11-21T12:32:08;17.20;87.20
19646;DHT22;9971;52.446;13.452;2022-11-21T12:37:14;17.20;83.30
19646;DHT22;9971;52.446;13.452;2022-11-21T12:42:18;17.20;79.40
19646;DHT22;9971;52.446;13.452;2022-11-21T12:47:50;12.30;79.40
19646;DHT22;9971;52.446;13.452;2022-11-21T12:52:53;5.10;99.90
19646;DHT22;9971;52.446;13.452;2022-11-21T12:58:04;3.10;99.90
19646;DHT22;9971;52.446;13.452;2022-11-21T13:03:46;2.60;99.90
19646;DHT22;9971;52.446;13.452;2022-11-21T13:08:30;2.30;99.90
19646;DHT22;9971;52.446;13.452;2022-11-21T13:13:31;2.20;99.90
19646;DHT22;9971;52.446;13.452;2022-11-21T13:18:35;2.10;99.90
19646;DHT22;9971;52.446;13.452;2022-11-21T13:23:37;2.00;99.90
19646;DHT22;9971;52.446;13.452;2022-11-21T13:28:38;2.00;99.90
19646;DHT22;9971;52.446;13.452;2022-11-21T13:33:43;2.10;99.90
19646;DHT22;9971;52.446;13.452;2022-11-21T13:39:23;2.90;99.90
19646;DHT22;9971;52.446;13.452;2022-11-21T13:44:40;4.00;99.90
19646;DHT22;9971;52.446;13.452;2022-11-21T13:55:07;6.30;99.90
19646;DHT22;9971;52.446;13.452;2022-11-21T14:00:33;7.10;99.90
19646;DHT22;9971;52.446;13.452;2022-11-21T14:05:53;7.70;99.90
19646;DHT22;9971;52.446;13.452;2022-11-21T14:10:51;8.40;99.90
19646;DHT22;9971;52.446;13.452;2022-11-21T14:16:06;9.00;99.90
19646;DHT22;9971;52.446;13.452;2022-11-21T14:21:04;9.50;99.90
19646;DHT22;9971;52.446;13.452;2022-11-21T14:26:11;9.80;99.90
19646;DHT22;9971;52.446;13.452;2022-11-21T14:31:13;10.20;99.90
19646;DHT22;9971;52.446;13.452;2022-11-21T14:36:31;10.50;99.90
19646;DHT22;9971;52.446;13.452;2022-11-21T14:41:32;10.80;99.90
19646;DHT22;9971;52.446;13.452;2022-11-21T14:46:35;11.10;99.90
19646;DHT22;9971;52.446;13.452;2022-11-21T14:51:37;11.40;99.90
19646;DHT22;9971;52.446;13.452;2022-11-21T14:56:39;11.60;99.90
19646;DHT22;9971;52.446;13.452;2022-11-21T15:01:41;11.80;99.90
19646;DHT22;9971;52.446;13.452;2022-11-21T15:06:43;12.10;99.90
19646;DHT22;9971;52.446;13.452;2022-11-21T15:12:03;12.30;99.90
19646;DHT22;9971;52.446;13.452;2022-11-21T15:17:06;12.50;99.90
19646;DHT22;9971;52.446;13.452;2022-11-21T15:22:14;12.70;99.90
19646;DHT22;9971;52.446;13.452;2022-11-21T15:32:22;13.10;99.90
19646;DHT22;9971;52.446;13.452;2022-11-21T15:37:24;13.30;99.90
19646;DHT22;9971;52.446;13.452;2022-11-21T15:42:33;13.50;99.90
19646;DHT22;9971;52.446;13.452;2022-11-21T15:47:29;13.60;99.90
19646;DHT22;9971;52.446;13.452;2022-11-21T16:17:32;10.70;99.90
19646;DHT22;9971;52.446;13.452;2022-11-21T16:22:35;12.20;99.90
19646;DHT22;9971;52.446;13.452;2022-11-21T16:27:37;8.60;99.90
19646;DHT22;9971;52.446;13.452;2022-11-21T16:32:40;5.80;99.90
19646;DHT22;9971;52.446;13.452;2022-11-21T16:37:42;4.40;99.90
19646;DHT22;9971;52.446;13.452;2022-11-21T16:42:45;4.10;99.90
19646;DHT22;9971;52.446;13.452;2022-11-21T16:47:47;4.80;99.90
19646;DHT22;9971;52.446;13.452;2022-11-21T16:52:50;5.70;99.90
19646;DHT22;9971;52.446;13.452;2022-11-21T16:57:52;6.60;99.90
19646;DHT22;9971;52.446;13.452;2022-11-21T17:02:54;7.20;99.90
19646;DHT22;9971;52.446;13.452;2022-11-21T17:07:56;7.90;99.90
19646;DHT22;9971;52.446;13.452;2022-11-21T17:12:58;8.50;99.90
19646;DHT22;9971;52.446;13.452;2022-11-21T17:18:01;9.00;99.90
19646;DHT22;9971;52.446;13.452;2022-11-21T17:23:03;9.50;99.90
19646;DHT22;9971;52.446;13.452;2022-11-21T17:28:05;9.90;99.90
19646;DHT22;9971;52.446;13.452;2022-11-21T17:33:09;10.20;99.90
19646;DHT22;9971;52.446;13.452;2022-11-21T17:38:11;10.60;99.90
19646;DHT22;9971;52.446;13.452;2022-11-21T17:43:14;10.90;99.90
19646;DHT22;9971;52.446;13.452;2022-11-21T17:48:17;11.20;99.90
19646;DHT22;9971;52.446;13.452;2022-11-21T17:53:20;11.50;99.90
19646;DHT22;9971;52.446;13.452;2022-11-21T17:58:22;11.70;99.90
19646;DHT22;9971;52.446;13.452;2022-11-21T18:03:25;12.00;99.90
19646;DHT22;9971;52.446;13.452;2022-11-21T18:08:29;12.20;99.90
19646;DHT22;9971;52.446;13.452;2022-11-21T18:13:30;12.40;99.90
19646;DHT22;9971;52.446;13.452;2022-11-21T18:18:32;12.60;99.90
19646;DHT22;9971;52.446;13.452;2022-11-21T18:23:34;12.80;99.90
19646;DHT22;9971;52.446;13.452;2022-11-21T18:28:36;12.90;99.90
19646;DHT22;9971;52.446;13.452;2022-11-21T18:33:38;13.10;99.90
19646;DHT22;9971;52.446;13.452;2022-11-21T18:38:41;13.20;99.90
19646;DHT22;9971;52.446;13.452;2022-11-21T18:43:43;13.40;99.90
19646;DHT22;9971;52.446;13.452;2022-11-21T18:48:44;13.50;99.90
19646;DHT22;9971;52.446;13.452;2022-11-21T18:53:50;13.60;99.90
19646;DHT22;9971;52.446;13.452;2022-11-21T18:58:52;13.70;99.90
19646;DHT22;9971;52.446;13.452;2022-11-21T19:03:54;13.80;99.90
19646;DHT22;9971;52.446;13.452;2022-11-21T19:08:56;13.90;99.90
19646;DHT22;9971;52.446;13.452;2022-11-21T19:13:58;14.00;99.90
19646;DHT22;9971;52.446;13.452;2022-11-21T19:19:04;14.10;99.90
19646;DHT22;9971;52.446;13.452;2022-11-21T19:24:06;14.10;99.90
19646;DHT22;9971;52.446;13.452;2022-11-21T19:29:08;14.20;99.90
19646;DHT22;9971;52.446;13.452;2022-11-21T19:34:10;14.30;99.90
19646;DHT22;9971;52.446;13.452;2022-11-21T19:39:12;14.40;99.90
19646;DHT22;9971;52.446;13.452;2022-11-21T19:44:14;14.40;99.90
19646;DHT22;9971;52.446;13.452;2022-11-21T19:49:17;14.50;99.90
19646;DHT22;9971;52.446;13.452;2022-11-21T19:54:19;14.50;99.90
19646;DHT22;9971;52.446;13.452;2022-11-21T19:59:22;14.60;99.90
19646;DHT22;9971;52.446;13.452;2022-11-21T20:04:24;14.60;99.90
19646;DHT22;9971;52.446;13.452;2022-11-21T20:09:27;14.70;99.90
19646;DHT22;9971;52.446;13.452;2022-11-21T20:14:29;14.70;99.90
19646;DHT22;9971;52.446;13.452;2022-11-21T20:19:31;14.80;99.90
19646;DHT22;9971;52.446;13.452;2022-11-21T20:24:34;14.80;99.90
19646;DHT22;9971;52.446;13.452;2022-11-21T20:29:36;14.80;99.90
19646;DHT22;9971;52.446;13.452;2022-11-21T20:34:39;14.80;99.90
19646;DHT22;9971;52.446;13.452;2022-11-21T20:39:41;14.90;99.90
19646;DHT22;9971;52.446;13.452;2022-11-21T20:44:44;14.90;99.90
19646;DHT22;9971;52.446;13.452;2022-11-21T20:49:46;15.00;99.90
19646;DHT22;9971;52.446;13.452;2022-11-21T20:54:49;15.00;99.90
19646;DHT22;9971;52.446;13.452;2022-11-21T20:59:51;15.00;99.90
19646;DHT22;9971;52.446;13.452;2022-11-21T21:04:54;15.00;99.90
19646;DHT22;9971;52.446;13.452;2022-11-21T21:09:56;15.10;99.90
19646;DHT22;9971;52.446;13.452;2022-11-21T21:14:58;15.10;99.90
19646;DHT22;9971;52.446;13.452;2022-11-21T21:20:01;15.10;99.90
19646;DHT22;9971;52.446;13.452;2022-11-21T21:25:04;15.10;99.90
19646;DHT22;9971;52.446;13.452;2022-11-21T21:30:06;15.10;99.90
19646;DHT22;9971;52.446;13.452;2022-11-21T21:35:09;15.20;99.90
19646;DHT22;9971;52.446;13.452;2022-11-21T21:40:11;15.10;99.90
19646;DHT22;9971;52.446;13.452;2022-11-21T21:45:14;15.20;99.90
19646;DHT22;9971;52.446;13.452;2022-11-21T21:50:16;15.20;99.90
19646;DHT22;9971;52.446;13.452;2022-11-21T21:55:18;15.20;99.90
19646;DHT22;9971;52.446;13.452;2022-11-21T22:00:21;15.20;99.90
19646;DHT22;9971;52.446;13.452;2022-11-21T22:05:23;15.20;99.90
19646;DHT22;9971;52.446;13.452;2022-11-21T22:10:26;15.20;99.90
19646;DHT22;9971;52.446;13.452;2022-11-21T22:15:28;10.00;99.90
19646;DHT22;9971;52.446;13.452;2022-11-21T22:20:31;3.80;99.90
19646;DHT22;9971;52.446;13.452;2022-11-21T22:25:33;2.00;99.90
19646;DHT22;9971;52.446;13.452;2022-11-21T22:30:36;1.40;99.90
19646;DHT22;9971;52.446;13.452;2022-11-21T22:35:38;1.20;99.90
19646;DHT22;9971;52.446;13.452;2022-11-21T22:40:41;1.10;99.90
19646;DHT22;9971;52.446;13.452;2022-11-21T22:45:43;1.00;99.90
19646;DHT22;9971;52.446;13.452;2022-11-21T22:50:45;0.80;99.90
19646;DHT22;9971;52.446;13.452;2022-11-21T22:55:56;0.80;99.90
19646;DHT22;9971;52.446;13.452;2022-11-21T23:01:00;0.90;99.90
19646;DHT22;9971;52.446;13.452;2022-11-21T23:06:02;3.60;99.90
19646;DHT22;9971;52.446;13.452;2022-11-21T23:11:04;5.90;99.90
19646;DHT22;9971;52.446;13.452;2022-11-21T23:16:05;7.30;99.90
19646;DHT22;9971;52.446;13.452;2022-11-21T23:21:08;8.30;99.90
19646;DHT22;9971;52.446;13.452;2022-11-21T23:26:09;9.00;99.90
19646;DHT22;9971;52.446;13.452;2022-11-21T23:31:12;9.50;99.90
19646;DHT22;9971;52.446;13.452;2022-11-21T23:36:14;9.80;99.90
19646;DHT22;9971;52.446;13.452;2022-11-21T23:41:17;10.10;99.90
19646;DHT22;9971;52.446;13.452;2022-11-21T23:46:19;10.40;99.90
19646;DHT22;9971;52.446;13.452;2022-11-21T23:51:21;10.60;99.90
19646;DHT22;9971;52.446;13.452;2022-11-21T23:56:23;10.90;99.90
